Time;durP1;ratioP1;P1;durP2;ratioP2;P2;SDS_P1;SDS_P2;PMS_P1;PMS_P2;Temp;Humidity;BMP_temperature;BMP_pressure;BME280_temperature;BME280_humidity;BME280_pressure;Samples;Min_cycle;Max_cycle;Signal;HPM_P1;HPM_P2
2022/03/14 00:00:48;;;;;;;16.52;11.70;;;11.40;54.50;;;;;;6125809;23;92478;-69
2022/03/14 00:03:16;;;;;;;15.48;10.98;;;11.50;54.60;;;;;;6127738;22;91681;-69
2022/03/14 00:05:44;;;;;;;13.63;11.23;;;11.50;55.50;;;;;;6125688;23;95863;-69
2022/03/14 00:08:13;;;;;;;17.10;11.05;;;11.50;55.80;;;;;;6125743;23;93041;-69
2022/03/14 00:10:41;;;;;;;13.27;10.18;;;11.50;56.20;;;;;;6126149;22;94710;-69
2022/03/14 00:13:09;;;;;;;13.00;10.73;;;11.60;56.80;;;;;;6127624;22;92364;-69
2022/03/14 00:15:40;;;;;;;12.43;11.00;;;11.60;57.30;;;;;;6127241;22;93414;-69
2022/03/14 00:18:10;;;;;;;12.57;11.13;;;11.60;57.50;;;;;;6127433;22;92419;-69
2022/03/14 00:20:37;;;;;;;12.85;10.90;;;11.60;57.40;;;;;;6125485;23;92385;-69
2022/03/14 00:23:04;;;;;;;14.07;11.25;;;11.60;57.50;;;;;;6125637;23;92472;-69
2022/03/14 00:25:31;;;;;;;15.23;10.50;;;11.60;58.00;;;;;;6100602;23;95705;-69
2022/03/14 00:27:58;;;;;;;14.30;11.18;;;11.60;58.40;;;;;;6101477;23;92896;-69
2022/03/14 00:30:25;;;;;;;14.45;10.65;;;11.50;58.60;;;;;;6100665;23;92482;-69
2022/03/14 00:32:53;;;;;;;13.98;10.68;;;11.50;59.10;;;;;;6126867;22;100403;-69
2022/03/14 00:35:21;;;;;;;13.90;11.20;;;11.50;59.40;;;;;;6098961;23;98002;-69
2022/03/14 00:37:48;;;;;;;14.30;11.30;;;11.50;60.00;;;;;;6125508;23;95245;-69
2022/03/14 00:40:15;;;;;;;13.55;10.93;;;11.40;60.20;;;;;;6076208;23;92440;-69
2022/03/14 00:42:48;;;;;;;13.85;11.13;;;11.40;60.10;;;;;;6125980;23;92844;-69
2022/03/14 00:45:15;;;;;;;14.65;11.30;;;11.40;60.60;;;;;;6126853;22;93066;-69
2022/03/14 00:47:42;;;;;;;13.68;10.90;;;11.40;60.70;;;;;;6127079;22;92880;-70
2022/03/14 00:50:10;;;;;;;13.10;10.52;;;11.30;61.00;;;;;;6125904;23;92797;-69
2022/03/14 00:52:37;;;;;;;14.38;11.85;;;11.20;61.20;;;;;;6125915;23;91729;-69
2022/03/14 00:55:04;;;;;;;13.30;10.50;;;11.10;61.50;;;;;;6127002;22;93232;-69
2022/03/14 00:57:31;;;;;;;13.68;10.90;;;11.10;61.90;;;;;;6126596;23;98201;-69
2022/03/14 01:00:00;;;;;;;13.00;10.10;;;11.00;62.40;;;;;;6099534;23;94796;-69
2022/03/14 01:02:27;;;;;;;11.73;10.07;;;10.90;62.80;;;;;;6126880;22;92404;-69
2022/03/14 01:04:54;;;;;;;14.20;10.55;;;10.90;63.30;;;;;;6099886;23;95873;-69
2022/03/14 01:07:21;;;;;;;12.93;9.88;;;10.90;63.80;;;;;;6124919;22;93142;-69
2022/03/14 01:09:48;;;;;;;12.93;9.35;;;10.90;64.20;;;;;;6124144;23;92380;-69
2022/03/14 01:12:15;;;;;;;11.48;9.65;;;10.90;64.70;;;;;;6124213;23;92470;-69
2022/03/14 01:14:43;;;;;;;12.98;10.02;;;10.90;65.10;;;;;;6124296;23;93254;-69
2022/03/14 01:17:11;;;;;;;12.75;8.63;;;10.90;65.50;;;;;;6125518;23;92993;-69
2022/03/14 01:19:38;;;;;;;10.55;8.30;;;11.00;66.00;;;;;;6125807;22;92808;-69
2022/03/14 01:22:10;;;;;;;11.55;8.80;;;11.00;66.30;;;;;;6124062;23;92409;-69
2022/03/14 01:24:40;;;;;;;11.25;8.23;;;11.10;66.60;;;;;;6124051;23;95314;-69
2022/03/14 01:27:07;;;;;;;10.55;8.32;;;11.10;67.00;;;;;;6125550;22;94389;-69
2022/03/14 01:29:34;;;;;;;10.32;7.97;;;11.20;67.20;;;;;;6099261;23;92495;-69
2022/03/14 01:32:06;;;;;;;8.55;7.57;;;11.20;67.30;;;;;;6123974;23;92437;-69
2022/03/14 01:34:34;;;;;;;15.27;8.02;;;11.30;67.60;;;;;;6125590;22;93287;-69
2022/03/14 01:37:02;;;;;;;7.85;7.05;;;11.20;68.00;;;;;;6123799;23;95305;-69
2022/03/14 01:39:30;;;;;;;7.40;6.68;;;11.20;68.30;;;;;;6125798;23;92800;-69
2022/03/14 01:41:58;;;;;;;7.88;6.93;;;11.20;68.50;;;;;;6125771;23;91757;-69
2022/03/14 01:44:26;;;;;;;10.75;7.43;;;11.20;68.80;;;;;;6123506;23;98447;-69
2022/03/14 01:46:55;;;;;;;10.90;6.57;;;11.20;69.10;;;;;;6123850;23;94181;-69
2022/03/14 01:49:22;;;;;;;8.20;6.85;;;11.20;69.30;;;;;;6122055;23;97763;-69
2022/03/14 01:51:52;;;;;;;7.75;6.95;;;11.30;69.50;;;;;;6125889;22;92397;-69
2022/03/14 01:54:19;;;;;;;7.75;6.53;;;11.30;69.70;;;;;;6100262;23;96116;-69
2022/03/14 01:56:47;;;;;;;7.95;6.55;;;11.30;69.80;;;;;;6125298;22;92944;-69
2022/03/14 01:59:14;;;;;;;7.25;5.97;;;11.40;70.10;;;;;;6125592;22;92700;-69
2022/03/14 02:01:41;;;;;;;6.60;5.93;;;11.40;70.20;;;;;;6099079;23;92924;-69
2022/03/14 02:04:08;;;;;;;6.57;5.90;;;11.40;70.40;;;;;;6123699;23;95785;-69
2022/03/14 02:06:39;;;;;;;6.80;6.10;;;11.40;70.40;;;;;;6124193;23;92902;-69
2022/03/14 02:09:07;;;;;;;8.88;6.60;;;11.50;70.50;;;;;;6124211;23;92439;-69
2022/03/14 02:11:33;;;;;;;6.63;5.90;;;11.50;70.60;;;;;;6124834;22;101433;-69
2022/03/14 02:14:01;;;;;;;6.57;5.63;;;11.50;70.60;;;;;;6122420;23;95751;-69
2022/03/14 02:16:27;;;;;;;7.13;6.18;;;11.50;70.70;;;;;;6123187;23;96700;-69
2022/03/14 02:18:56;;;;;;;7.63;5.60;;;11.50;70.80;;;;;;6125754;23;92418;-69
2022/03/14 02:21:22;;;;;;;6.53;5.63;;;11.50;70.90;;;;;;6099135;23;98927;-69
2022/03/14 02:23:49;;;;;;;6.13;5.45;;;11.50;71.10;;;;;;6123338;23;95869;-69
2022/03/14 02:26:18;;;;;;;6.10;5.45;;;11.50;71.20;;;;;;6099138;23;95455;-69
2022/03/14 02:28:45;;;;;;;5.55;4.82;;;11.50;71.70;;;;;;6099453;23;92904;-69
2022/03/14 02:31:12;;;;;;;5.10;4.28;;;11.50;72.20;;;;;;6124050;23;99159;-69
2022/03/14 02:33:39;;;;;;;6.13;4.57;;;11.50;72.50;;;;;;6123658;23;93363;-69
2022/03/14 02:36:06;;;;;;;5.03;4.53;;;11.50;72.20;;;;;;6125400;22;92920;-69
2022/03/14 02:38:33;;;;;;;4.90;4.50;;;11.50;72.00;;;;;;6123944;22;94900;-69
2022/03/14 02:41:00;;;;;;;4.93;4.43;;;11.50;71.90;;;;;;6124109;23;92459;-69
2022/03/14 02:43:28;;;;;;;4.95;4.45;;;11.60;72.00;;;;;;6125325;22;93176;-69
2022/03/14 02:45:55;;;;;;;5.07;4.20;;;11.60;71.90;;;;;;6125133;23;93103;-69
2022/03/14 02:48:25;;;;;;;4.70;4.10;;;11.60;72.00;;;;;;6123647;23;92480;-69
2022/03/14 02:50:55;;;;;;;5.20;4.70;;;11.60;72.40;;;;;;6124989;22;92393;-69
2022/03/14 02:53:22;;;;;;;5.10;4.57;;;11.60;72.40;;;;;;6123510;23;93138;-69
2022/03/14 02:55:49;;;;;;;5.00;4.28;;;11.60;72.30;;;;;;6123997;23;92980;-69
2022/03/14 02:58:16;;;;;;;4.82;4.38;;;11.60;72.30;;;;;;6125609;23;92480;-69
2022/03/14 03:00:43;;;;;;;5.22;4.00;;;11.60;72.30;;;;;;6098597;23;92458;-69
2022/03/14 03:03:11;;;;;;;4.57;3.80;;;11.60;72.30;;;;;;6123750;22;95540;-69
2022/03/14 03:05:43;;;;;;;4.55;4.18;;;11.60;72.30;;;;;;6098429;23;97835;-69
2022/03/14 03:08:11;;;;;;;4.93;4.35;;;11.60;72.40;;;;;;6124159;23;92464;-69
2022/03/14 03:10:41;;;;;;;5.63;5.05;;;11.60;73.10;;;;;;6125165;22;92444;-69
2022/03/14 03:13:10;;;;;;;5.38;4.78;;;11.60;72.40;;;;;;6125351;22;93226;-69
2022/03/14 03:15:37;;;;;;;8.60;4.65;;;11.70;72.40;;;;;;6123409;23;92862;-69
2022/03/14 03:18:06;;;;;;;5.60;5.10;;;11.70;72.40;;;;;;6123859;23;92862;-69
2022/03/14 03:20:33;;;;;;;5.53;4.80;;;11.70;72.60;;;;;;6124074;23;91699;-69
2022/03/14 03:23:03;;;;;;;10.40;5.40;;;11.60;72.50;;;;;;6123271;23;93104;-69
2022/03/14 03:25:30;;;;;;;6.18;5.57;;;11.60;72.70;;;;;;6125169;22;93038;-69
2022/03/14 03:27:57;;;;;;;9.45;6.40;;;11.60;72.50;;;;;;6122775;22;102391;-69
2022/03/14 03:30:24;;;;;;;6.38;5.78;;;11.60;72.50;;;;;;6123576;23;92376;-69
2022/03/14 03:32:51;;;;;;;7.60;6.32;;;11.60;72.40;;;;;;6074243;23;95989;-69
2022/03/14 03:35:18;;;;;;;7.35;6.43;;;11.60;72.30;;;;;;6123336;23;95569;-69
2022/03/14 03:37:45;;;;;;;7.55;6.22;;;11.60;72.60;;;;;;6125219;22;92433;-69
2022/03/14 03:40:12;;;;;;;8.48;6.40;;;11.60;72.60;;;;;;6125306;23;92414;-70
2022/03/14 03:42:41;;;;;;;8.02;6.63;;;11.60;72.50;;;;;;6122827;23;94617;-69
2022/03/14 03:45:09;;;;;;;8.27;6.65;;;11.50;72.80;;;;;;6125584;22;93001;-69
2022/03/14 03:47:36;;;;;;;8.40;6.70;;;11.60;72.90;;;;;;6125214;22;92414;-69
2022/03/14 03:50:03;;;;;;;7.72;6.30;;;11.60;72.80;;;;;;6124887;22;92424;-69
2022/03/14 03:52:30;;;;;;;7.55;6.32;;;11.50;72.90;;;;;;6123358;22;95586;-69
2022/03/14 03:54:57;;;;;;;7.82;5.88;;;11.60;72.90;;;;;;6124509;23;96725;-69
2022/03/14 03:57:24;;;;;;;7.50;5.78;;;11.60;73.10;;;;;;6125191;22;92402;-69
2022/03/14 03:59:51;;;;;;;7.15;6.00;;;11.60;73.20;;;;;;6122312;23;92464;-69
2022/03/14 04:02:19;;;;;;;6.47;5.72;;;11.50;73.50;;;;;;6124482;22;95698;-69
2022/03/14 04:04:50;;;;;;;6.65;5.38;;;11.60;73.70;;;;;;6122411;23;95244;-69
2022/03/14 04:07:23;;;;;;;6.05;5.13;;;11.60;73.90;;;;;;6124872;23;92414;-69
2022/03/14 04:09:55;;;;;;;5.70;4.73;;;11.50;73.90;;;;;;6123636;23;91652;-69
2022/03/14 04:12:24;;;;;;;5.57;5.05;;;11.50;73.80;;;;;;6123370;23;92957;-69
2022/03/14 04:14:51;;;;;;;5.80;4.60;;;11.60;74.10;;;;;;6098085;23;95707;-69
2022/03/14 04:17:19;;;;;;;5.15;4.50;;;11.60;74.40;;;;;;6123825;22;95366;-69
2022/03/14 04:19:47;;;;;;;5.22;4.55;;;11.60;74.20;;;;;;6124955;22;92572;-70
2022/03/14 04:22:14;;;;;;;4.68;4.18;;;11.60;74.40;;;;;;6124704;22;93133;-69
2022/03/14 04:24:41;;;;;;;4.60;4.18;;;11.60;74.40;;;;;;6097684;23;108428;-69
2022/03/14 04:27:08;;;;;;;4.80;4.40;;;11.60;74.60;;;;;;6124622;22;92451;-70
2022/03/14 04:29:35;;;;;;;4.78;4.35;;;11.70;74.60;;;;;;6123051;23;92425;-69
2022/03/14 04:32:02;;;;;;;4.80;4.30;;;11.70;74.60;;;;;;6124326;22;93117;-69
2022/03/14 04:34:30;;;;;;;4.40;4.00;;;11.60;74.80;;;;;;6124940;23;95730;-69
2022/03/14 04:36:58;;;;;;;5.63;4.78;;;11.60;75.00;;;;;;6098236;23;92529;-69
2022/03/14 04:39:25;;;;;;;4.82;4.25;;;11.60;75.00;;;;;;6124904;22;92891;-69
2022/03/14 04:41:53;;;;;;;4.45;4.05;;;11.70;75.00;;;;;;6123640;22;95597;-69
2022/03/14 04:44:21;;;;;;;5.18;4.15;;;11.60;75.10;;;;;;6124329;23;95252;-69
2022/03/14 04:46:48;;;;;;;4.32;3.92;;;11.60;75.20;;;;;;6126174;23;92455;-69
2022/03/14 04:49:16;;;;;;;4.53;4.13;;;11.70;75.60;;;;;;6124024;23;92538;-69
2022/03/14 04:51:43;;;;;;;4.88;4.45;;;11.60;76.20;;;;;;6123928;23;103843;-69
2022/03/14 04:54:10;;;;;;;5.88;3.92;;;11.60;77.00;;;;;;6074828;23;95658;-70
2022/03/14 04:56:37;;;;;;;5.00;4.50;;;11.60;77.20;;;;;;6126047;22;92373;-69
2022/03/14 04:59:04;;;;;;;5.35;3.97;;;11.60;77.40;;;;;;6124711;23;91764;-69
2022/03/14 05:01:31;;;;;;;4.57;4.18;;;11.60;77.50;;;;;;6123558;23;98092;-69
2022/03/14 05:03:58;;;;;;;4.22;3.85;;;11.70;77.80;;;;;;6123792;23;96200;-69
2022/03/14 05:06:26;;;;;;;5.88;4.40;;;11.60;78.10;;;;;;6124651;22;94773;-69
2022/03/14 05:08:53;;;;;;;4.40;4.00;;;11.60;78.50;;;;;;6124488;23;92444;-69
2022/03/14 05:11:20;;;;;;;4.47;4.07;;;11.60;78.80;;;;;;6125890;22;92958;-69
2022/03/14 05:13:47;;;;;;;4.65;4.10;;;11.60;78.80;;;;;;6125763;22;92909;-69
2022/03/14 05:16:14;;;;;;;6.78;4.78;;;11.60;79.30;;;;;;6125817;22;92383;-69
2022/03/14 05:18:41;;;;;;;4.97;4.55;;;11.50;79.60;;;;;;6125943;22;92380;-69
2022/03/14 05:21:08;;;;;;;5.05;4.65;;;11.50;79.80;;;;;;6125697;22;93274;-68
2022/03/14 05:23:35;;;;;;;5.10;4.63;;;11.50;80.00;;;;;;6124275;23;95613;-69
2022/03/14 05:26:02;;;;;;;4.50;4.10;;;11.50;80.80;;;;;;6099400;23;92340;-70
2022/03/14 05:28:29;;;;;;;5.10;4.60;;;11.50;80.40;;;;;;6124354;23;92484;-69
2022/03/14 05:30:56;;;;;;;5.53;4.05;;;11.50;80.80;;;;;;6097918;23;98201;-69
2022/03/14 05:33:23;;;;;;;5.50;5.00;;;11.50;81.20;;;;;;6123839;23;98525;-69
2022/03/14 05:35:51;;;;;;;5.38;4.88;;;11.50;81.10;;;;;;6124386;23;92586;-69
2022/03/14 05:38:18;;;;;;;5.43;4.80;;;11.50;81.40;;;;;;6098683;23;100353;-69
2022/03/14 05:40:45;;;;;;;6.07;5.10;;;11.40;81.40;;;;;;6125651;22;93124;-69
2022/03/14 05:43:12;;;;;;;5.75;5.15;;;11.40;81.70;;;;;;6125263;22;92794;-69
2022/03/14 05:45:39;;;;;;;5.75;4.38;;;11.40;81.70;;;;;;6124066;23;92450;-69
2022/03/14 05:48:06;;;;;;;23.58;21.95;;;11.40;82.00;;;;;;6126033;23;92074;-69
2022/03/14 05:50:33;;;;;;;6.65;5.30;;;11.30;82.20;;;;;;6098568;23;95845;-69
2022/03/14 05:53:01;;;;;;;5.35;4.85;;;11.30;82.30;;;;;;6125269;23;92937;-69
2022/03/14 05:55:28;;;;;;;6.10;5.30;;;11.30;82.60;;;;;;6147718;22;94769;-69
2022/03/14 05:57:55;;;;;;;6.35;5.75;;;11.20;83.00;;;;;;6125197;22;104276;-69
2022/03/14 06:00:24;;;;;;;5.95;5.35;;;11.20;83.30;;;;;;6098602;23;95602;-69
2022/03/14 06:02:53;;;;;;;7.50;6.13;;;11.20;83.50;;;;;;6125688;22;92434;-69
2022/03/14 06:05:22;;;;;;;7.30;6.47;;;11.10;83.70;;;;;;6098657;23;92414;-69
2022/03/14 06:07:49;;;;;;;8.32;6.50;;;11.10;84.10;;;;;;6124209;23;92465;-69
2022/03/14 06:10:17;;;;;;;7.03;6.25;;;11.10;84.30;;;;;;6125196;23;93142;-69
2022/03/14 06:12:44;;;;;;;7.03;6.00;;;11.10;84.60;;;;;;6099587;23;95791;-69
2022/03/14 06:15:16;;;;;;;6.50;5.90;;;11.00;84.90;;;;;;6123629;23;92434;-70
2022/03/14 06:17:44;;;;;;;8.15;6.20;;;11.00;85.30;;;;;;6125803;22;92383;-70
2022/03/14 06:20:13;;;;;;;8.57;6.13;;;11.00;85.50;;;;;;6121956;23;96830;-69
2022/03/14 06:22:41;;;;;;;7.00;6.20;;;11.00;85.60;;;;;;6125290;22;95203;-69
2022/03/14 06:25:09;;;;;;;7.43;6.22;;;11.00;85.80;;;;;;6123587;23;92518;-70
2022/03/14 06:27:37;;;;;;;8.20;5.53;;;11.00;86.00;;;;;;6125880;22;92520;-69
2022/03/14 06:30:05;;;;;;;5.93;5.32;;;10.90;86.30;;;;;;6123652;23;95905;-69
2022/03/14 06:32:34;;;;;;;7.60;5.30;;;11.00;86.60;;;;;;6125361;23;92421;-69
2022/03/14 06:35:06;;;;;;;6.93;5.20;;;11.00;86.60;;;;;;6125639;22;92379;-69
2022/03/14 06:37:34;;;;;;;6.97;6.28;;;11.00;86.70;;;;;;6124685;23;91726;-69
2022/03/14 06:40:02;;;;;;;6.50;5.82;;;11.00;87.10;;;;;;6124641;22;109205;-69
2022/03/14 06:42:29;;;;;;;6.18;5.57;;;11.00;87.30;;;;;;6098800;23;95575;-70
2022/03/14 06:45:01;;;;;;;8.38;6.13;;;11.00;87.60;;;;;;6124141;22;94832;-69
2022/03/14 06:47:29;;;;;;;6.00;5.40;;;11.00;87.60;;;;;;6125425;22;92357;-69
2022/03/14 06:49:55;;;;;;;7.80;6.22;;;11.00;87.70;;;;;;6123860;23;93074;-69
2022/03/14 06:52:22;;;;;;;7.32;6.43;;;11.00;87.70;;;;;;6124999;22;93261;-69
2022/03/14 06:54:50;;;;;;;6.75;6.05;;;11.00;87.70;;;;;;6125631;22;92455;-69
2022/03/14 06:57:17;;;;;;;6.47;5.45;;;11.00;87.90;;;;;;6099115;23;92480;-69
2022/03/14 06:59:45;;;;;;;7.93;6.60;;;11.00;88.20;;;;;;6124890;23;93187;-69
2022/03/14 07:02:12;;;;;;;6.70;6.03;;;11.00;88.30;;;;;;6099309;23;95359;-69
2022/03/14 07:04:39;;;;;;;7.72;6.30;;;11.00;88.40;;;;;;6122186;23;107076;-69
2022/03/14 07:07:07;;;;;;;6.95;6.25;;;11.00;88.70;;;;;;6099116;23;92694;-69
2022/03/14 07:09:35;;;;;;;6.55;5.80;;;11.10;88.60;;;;;;6123353;23;95743;-69
2022/03/14 07:12:04;;;;;;;6.78;6.05;;;11.10;88.80;;;;;;6123789;23;95258;-69
2022/03/14 07:14:31;;;;;;;6.57;5.38;;;11.10;88.70;;;;;;6124968;22;92323;-69
2022/03/14 07:16:58;;;;;;;7.97;6.68;;;11.20;88.90;;;;;;6125385;23;92390;-69
2022/03/14 07:19:25;;;;;;;8.13;5.93;;;11.20;88.90;;;;;;6124967;23;93116;-70
2022/03/14 07:21:52;;;;;;;8.57;5.95;;;11.10;89.20;;;;;;6098577;23;97858;-69
2022/03/14 07:24:19;;;;;;;7.45;6.57;;;11.20;89.30;;;;;;6123192;23;92550;-69
2022/03/14 07:26:46;;;;;;;7.30;6.15;;;11.30;89.10;;;;;;6124269;23;91746;-69
2022/03/14 07:29:14;;;;;;;7.85;6.85;;;11.20;89.30;;;;;;6125106;22;93265;-69
2022/03/14 07:31:41;;;;;;;7.22;6.45;;;11.30;89.30;;;;;;6123221;23;92568;-70
2022/03/14 07:34:09;;;;;;;7.50;6.57;;;11.30;89.20;;;;;;6122054;23;94925;-69
2022/03/14 07:36:37;;;;;;;8.27;7.15;;;11.30;89.50;;;;;;6124936;23;92405;-69
2022/03/14 07:39:05;;;;;;;6.88;6.18;;;11.30;89.50;;;;;;6098816;23;95934;-70
2022/03/14 07:41:32;;;;;;;7.32;6.07;;;11.30;89.70;;;;;;6124701;22;92805;-70
2022/03/14 07:44:00;;;;;;;7.78;6.28;;;11.30;89.90;;;;;;6125151;23;92416;-69
2022/03/14 07:46:28;;;;;;;8.82;7.00;;;11.30;89.90;;;;;;6123327;23;92334;-70
2022/03/14 07:48:57;;;;;;;7.05;5.75;;;11.40;89.90;;;;;;6122962;23;96281;-69
2022/03/14 07:51:24;;;;;;;7.07;6.38;;;11.30;90.00;;;;;;6123371;23;95396;-69
2022/03/14 07:53:51;;;;;;;7.80;6.70;;;11.30;90.10;;;;;;6123259;23;93152;-69
2022/03/14 07:56:20;;;;;;;6.43;5.68;;;11.30;90.10;;;;;;6124864;22;92422;-69
2022/03/14 07:58:47;;;;;;;8.75;5.95;;;11.30;90.10;;;;;;6121803;23;95620;-69
2022/03/14 08:01:17;;;;;;;8.48;6.45;;;11.40;90.20;;;;;;6098186;23;96951;-69
2022/03/14 08:03:45;;;;;;;9.73;6.93;;;11.30;90.20;;;;;;6124958;23;92718;-69
2022/03/14 08:06:17;;;;;;;10.52;6.80;;;11.30;90.30;;;;;;6099079;23;92582;-69
2022/03/14 08:08:44;;;;;;;7.38;6.68;;;11.40;90.50;;;;;;6124449;23;93207;-69
2022/03/14 08:11:11;;;;;;;7.60;6.63;;;11.40;90.20;;;;;;6122733;23;103526;-70
2022/03/14 08:13:38;;;;;;;8.00;7.20;;;11.50;90.20;;;;;;6124485;23;92393;-70
2022/03/14 08:16:06;;;;;;;8.48;6.70;;;11.50;90.10;;;;;;6126381;22;91682;-69
2022/03/14 08:18:33;;;;;;;8.35;6.60;;;11.60;90.30;;;;;;6126033;22;93732;-70
2022/03/14 08:21:00;;;;;;;7.32;6.60;;;11.60;90.10;;;;;;6124314;23;93961;-70
2022/03/14 08:23:27;;;;;;;8.07;6.68;;;11.60;90.10;;;;;;6124489;22;94836;-70
2022/03/14 08:25:54;;;;;;;7.65;6.88;;;11.60;90.20;;;;;;6100162;23;92458;-70
2022/03/14 08:28:21;;;;;;;8.05;7.25;;;11.70;90.00;;;;;;6124479;23;93194;-70
2022/03/14 08:30:49;;;;;;;7.82;7.03;;;11.80;90.00;;;;;;6124184;23;92835;-70
2022/03/14 08:33:17;;;;;;;8.93;7.05;;;11.80;89.90;;;;;;6126277;22;92410;-70
2022/03/14 08:35:44;;;;;;;8.82;7.75;;;11.80;89.90;;;;;;6125915;23;92405;-70
2022/03/14 08:38:13;;;;;;;8.20;6.85;;;11.90;89.80;;;;;;6124133;23;95658;-70
2022/03/14 08:40:41;;;;;;;8.65;7.70;;;11.90;89.70;;;;;;6126139;22;93133;-70
2022/03/14 08:43:08;;;;;;;7.60;6.90;;;11.90;89.60;;;;;;6124699;23;92458;-70
2022/03/14 08:45:36;;;;;;;9.52;7.47;;;12.00;89.60;;;;;;6125803;22;92422;-75
2022/03/14 08:48:05;;;;;;;9.05;7.78;;;12.00;89.50;;;;;;6123442;23;95589;-75
2022/03/14 08:50:33;;;;;;;9.95;7.88;;;12.00;89.50;;;;;;6124482;23;95232;-75
2022/03/14 08:53:00;;;;;;;8.52;7.15;;;12.00;89.60;;;;;;6126088;22;92465;-75
2022/03/14 08:55:27;;;;;;;8.68;7.78;;;12.00;89.40;;;;;;6124473;23;92431;-75
2022/03/14 08:57:54;;;;;;;10.57;8.25;;;12.10;89.30;;;;;;6126030;23;93176;-75
2022/03/14 09:00:24;;;;;;;8.57;7.38;;;12.10;89.20;;;;;;6125411;22;92967;-75
2022/03/14 09:02:51;;;;;;;9.52;8.10;;;12.20;89.00;;;;;;6126168;23;92282;-75
2022/03/14 09:05:18;;;;;;;9.70;8.70;;;12.20;88.90;;;;;;6126398;23;97210;-75
2022/03/14 09:07:45;;;;;;;9.23;8.32;;;12.30;88.70;;;;;;6125807;22;93029;-75
2022/03/14 09:10:14;;;;;;;10.52;8.15;;;12.30;88.70;;;;;;6124606;23;92855;-74
2022/03/14 09:12:47;;;;;;;10.20;8.68;;;12.40;88.70;;;;;;6124748;23;94734;-75
2022/03/14 09:15:15;;;;;;;9.57;8.68;;;12.40;88.40;;;;;;6124836;23;92536;-75
2022/03/14 09:17:50;;;;;;;9.20;8.30;;;12.40;88.40;;;;;;6099345;23;95668;-75
2022/03/14 09:20:19;;;;;;;9.70;8.73;;;12.50;88.30;;;;;;6124466;23;94507;-75
2022/03/14 09:22:47;;;;;;;10.27;9.10;;;12.40;88.30;;;;;;6125392;22;96727;-70
2022/03/14 09:25:15;;;;;;;10.18;8.65;;;12.40;88.50;;;;;;6126189;22;92401;-75
2022/03/14 09:27:43;;;;;;;10.77;9.20;;;12.40;88.70;;;;;;6125391;23;93168;-75
2022/03/14 09:30:12;;;;;;;9.85;8.27;;;12.40;88.70;;;;;;6126425;23;91873;-75
2022/03/14 09:32:40;;;;;;;10.38;9.27;;;12.40;88.50;;;;;;6124236;23;92492;-75
2022/03/14 09:35:09;;;;;;;9.70;8.38;;;12.40;88.60;;;;;;6124931;23;92455;-75
2022/03/14 09:37:38;;;;;;;10.38;9.32;;;12.50;88.60;;;;;;6122483;23;95494;-70
2022/03/14 09:40:08;;;;;;;10.55;9.55;;;12.50;88.50;;;;;;6123971;23;95329;-70
2022/03/14 09:42:37;;;;;;;10.80;9.50;;;12.50;88.50;;;;;;6125695;22;92339;-70
2022/03/14 09:45:05;;;;;;;11.90;9.98;;;12.60;88.50;;;;;;6123676;23;92488;-74
2022/03/14 09:47:43;;;;;;;10.77;9.68;;;12.60;88.40;;;;;;6123326;23;95839;-75
2022/03/14 09:50:19;;;;;;;10.35;9.10;;;12.70;88.30;;;;;;6125924;22;92868;-75
2022/03/14 09:52:48;;;;;;;9.63;8.48;;;12.80;88.10;;;;;;6125951;22;92606;-70
2022/03/14 09:55:16;;;;;;;10.18;9.23;;;12.80;87.80;;;;;;6124649;23;91731;-70
2022/03/14 09:57:43;;;;;;;9.65;8.65;;;12.80;87.70;;;;;;6122798;23;108302;-70
2022/03/14 10:00:13;;;;;;;9.93;8.93;;;12.90;87.60;;;;;;6125275;22;92847;-70
2022/03/14 10:02:41;;;;;;;10.23;9.23;;;13.00;87.50;;;;;;6123962;22;94883;-70
2022/03/14 10:05:16;;;;;;;8.55;7.75;;;13.00;87.50;;;;;;6125887;22;92394;-70
2022/03/14 10:07:44;;;;;;;10.55;8.90;;;13.10;87.40;;;;;;6125303;22;93294;-70
2022/03/14 10:10:15;;;;;;;10.60;9.05;;;13.10;87.10;;;;;;6125339;23;92813;-70
2022/03/14 10:12:43;;;;;;;11.30;10.05;;;13.20;86.70;;;;;;6124340;23;92307;-75
2022/03/14 10:15:11;;;;;;;11.15;9.45;;;13.20;86.50;;;;;;6125435;22;92362;-75
2022/03/14 10:17:39;;;;;;;10.02;8.90;;;13.20;86.50;;;;;;6125959;23;92953;-75
2022/03/14 10:20:07;;;;;;;11.25;10.05;;;13.20;86.50;;;;;;6124578;23;95955;-75
2022/03/14 10:22:39;;;;;;;13.15;11.38;;;13.10;86.30;;;;;;6125489;22;92343;-75
2022/03/14 10:25:18;;;;;;;11.88;10.07;;;13.10;86.30;;;;;;6123514;23;92501;-70
2022/03/14 10:27:57;;;;;;;14.52;11.60;;;13.00;86.50;;;;;;6096722;23;98003;-70
2022/03/14 10:30:31;;;;;;;13.30;10.93;;;12.90;86.60;;;;;;6124857;22;95768;-70
2022/03/14 10:33:08;;;;;;;12.80;10.77;;;12.80;86.60;;;;;;6123082;23;92476;-70
2022/03/14 10:35:36;;;;;;;14.60;11.80;;;12.80;86.90;;;;;;6125147;23;92374;-75
2022/03/14 10:38:06;;;;;;;12.95;11.27;;;12.80;86.80;;;;;;6124747;23;93357;-75
2022/03/14 10:40:41;;;;;;;13.23;10.73;;;12.70;86.80;;;;;;6123532;23;93304;-75
2022/03/14 10:43:23;;;;;;;12.85;11.05;;;12.70;87.00;;;;;;6125124;23;92678;-75
2022/03/14 10:45:50;;;;;;;16.08;10.93;;;12.60;87.20;;;;;;6125203;22;91960;-70
2022/03/14 10:48:43;;;;;;;11.68;9.38;;;12.60;87.30;;;;;;6124740;22;93327;-70
2022/03/14 10:51:12;;;;;;;14.43;9.57;;;12.60;87.00;;;;;;6125493;22;92874;-75
2022/03/14 10:53:45;;;;;;;19.52;9.52;;;12.50;86.80;;;;;;6122311;23;94846;-75
2022/03/14 10:56:12;;;;;;;13.77;9.02;;;12.60;86.80;;;;;;6125897;23;92362;-75
2022/03/14 10:58:40;;;;;;;9.93;7.60;;;12.50;86.70;;;;;;6125630;23;93182;-75
2022/03/14 11:01:10;;;;;;;8.95;6.63;;;12.50;86.30;;;;;;6122758;23;109769;-70
2022/03/14 11:03:41;;;;;;;10.45;6.60;;;12.60;85.90;;;;;;6124007;23;92528;-70
2022/03/14 11:06:14;;;;;;;11.13;6.78;;;12.60;85.80;;;;;;6123511;23;92456;-70
2022/03/14 11:08:42;;;;;;;9.82;5.82;;;12.70;85.50;;;;;;6125528;22;93176;-75
2022/03/14 11:11:12;;;;;;;10.27;6.85;;;12.80;85.00;;;;;;6125387;23;91829;-70
2022/03/14 11:14:00;;;;;;;11.40;7.75;;;12.90;84.90;;;;;;6124028;23;92405;-70
2022/03/14 11:16:34;;;;;;;12.05;8.10;;;12.90;84.90;;;;;;6125513;22;92315;-75
2022/03/14 11:19:01;;;;;;;11.20;7.47;;;12.90;84.60;;;;;;6123761;23;95655;-70
2022/03/14 11:21:32;;;;;;;14.18;8.32;;;12.90;84.70;;;;;;6122627;23;111683;-70
2022/03/14 11:24:00;;;;;;;11.93;7.70;;;13.00;84.80;;;;;;6123612;23;92450;-70
2022/03/14 11:26:28;;;;;;;13.38;8.20;;;13.00;84.80;;;;;;6125412;23;92408;-75
2022/03/14 11:28:55;;;;;;;14.10;8.75;;;13.00;84.90;;;;;;6123361;23;93377;-70
2022/03/14 11:31:23;;;;;;;12.27;8.68;;;13.10;84.90;;;;;;6098804;23;95709;-70
2022/03/14 11:33:50;;;;;;;13.63;8.63;;;13.10;84.70;;;;;;6125099;22;92421;-75
2022/03/14 11:36:22;;;;;;;14.10;9.63;;;13.30;84.50;;;;;;6125853;22;91620;-75
2022/03/14 11:38:49;;;;;;;15.93;8.98;;;13.30;84.30;;;;;;6123574;23;95900;-75
2022/03/14 11:41:18;;;;;;;17.10;10.00;;;13.40;84.30;;;;;;6123508;23;95912;-70
2022/03/14 11:43:46;;;;;;;15.82;9.88;;;13.40;84.20;;;;;;6122545;22;100687;-70
2022/03/14 11:46:35;;;;;;;18.33;10.85;;;13.50;84.00;;;;;;6124020;23;92489;-75
2022/03/14 11:49:29;;;;;;;18.08;11.80;;;13.50;83.70;;;;;;6122053;23;95704;-75
2022/03/14 11:52:07;;;;;;;16.65;9.93;;;13.60;83.40;;;;;;6118463;23;93058;-75
2022/03/14 11:54:48;;;;;;;16.65;10.82;;;13.60;83.30;;;;;;6123255;23;93043;-70
2022/03/14 11:57:37;;;;;;;13.60;10.23;;;13.70;83.40;;;;;;6122421;23;94407;-70
2022/03/14 12:00:24;;;;;;;19.60;11.10;;;13.60;83.10;;;;;;6123628;23;93081;-70
2022/03/14 12:03:01;;;;;;;17.08;9.68;;;13.60;83.00;;;;;;6122870;23;95569;-75
2022/03/14 12:05:32;;;;;;;16.60;10.30;;;13.60;83.10;;;;;;6123499;23;96141;-75
2022/03/14 12:08:00;;;;;;;17.58;10.75;;;13.50;83.10;;;;;;6122967;23;92896;-75
2022/03/14 12:10:29;;;;;;;16.92;10.15;;;13.40;83.10;;;;;;6122600;22;95402;-70
2022/03/14 12:12:59;;;;;;;17.23;10.50;;;13.40;83.60;;;;;;6122199;23;94180;-70
2022/03/14 12:15:41;;;;;;;15.60;9.40;;;13.30;83.80;;;;;;6124247;22;92309;-70
2022/03/14 12:18:23;;;;;;;18.73;10.43;;;13.30;84.00;;;;;;6124920;22;92365;-75
2022/03/14 12:21:04;;;;;;;16.75;10.38;;;13.30;84.30;;;;;;6097841;23;95701;-70
2022/03/14 12:23:34;;;;;;;15.93;9.52;;;13.30;84.40;;;;;;6122503;23;93063;-70
2022/03/14 12:26:24;;;;;;;17.85;10.05;;;13.30;84.30;;;;;;6122845;23;92337;-70
2022/03/14 12:28:52;;;;;;;15.57;10.23;;;13.30;84.20;;;;;;6124606;23;91579;-70
2022/03/14 12:31:19;;;;;;;14.77;10.30;;;13.20;84.40;;;;;;6123383;22;96544;-70
2022/03/14 12:33:49;;;;;;;18.20;11.27;;;13.20;85.00;;;;;;6123867;22;93122;-70
2022/03/14 12:36:39;;;;;;;20.08;12.43;;;13.10;84.40;;;;;;6122701;23;94763;-70
2022/03/14 12:39:09;;;;;;;19.40;11.77;;;13.20;84.50;;;;;;6123904;22;92469;-70
2022/03/14 12:41:38;;;;;;;22.58;14.38;;;13.10;84.50;;;;;;6097765;23;95878;-70
2022/03/14 12:44:26;;;;;;;22.58;13.82;;;13.20;84.70;;;;;;6121933;23;93168;-70
2022/03/14 12:46:56;;;;;;;18.45;12.88;;;13.30;84.50;;;;;;6123804;22;92366;-70
2022/03/14 12:49:49;;;;;;;20.80;13.82;;;13.30;84.30;;;;;;6124079;22;92388;-75